sensor_id;sensor_type;location;lat;lon;timestamp;P1;durP1;ratioP1;P2;durP2;ratioP2
22332;SDS011;11334;36.986;-121.936;2023-05-14T00:00:13;3.95;;;2.60;;
22332;SDS011;11334;36.986;-121.936;2023-05-14T00:02:40;3.38;;;2.70;;
22332;SDS011;11334;36.986;-121.936;2023-05-14T00:05:07;5.28;;;2.60;;
22332;SDS011;11334;36.986;-121.936;2023-05-14T00:07:34;3.78;;;2.30;;
22332;SDS011;11334;36.986;-121.936;2023-05-14T00:10:00;4.63;;;2.17;;
22332;SDS011;11334;36.986;-121.936;2023-05-14T00:12:26;6.68;;;2.55;;
22332;SDS011;11334;36.986;-121.936;2023-05-14T00:14:54;4.07;;;2.65;;
22332;SDS011;11334;36.986;-121.936;2023-05-14T00:17:21;2.88;;;2.35;;
22332;SDS011;11334;36.986;-121.936;2023-05-14T00:19:47;4.15;;;2.40;;
22332;SDS011;11334;36.986;-121.936;2023-05-14T00:22:14;4.13;;;2.28;;
22332;SDS011;11334;36.986;-121.936;2023-05-14T00:24:40;6.05;;;2.47;;
22332;SDS011;11334;36.986;-121.936;2023-05-14T00:27:06;2.92;;;2.63;;
22332;SDS011;11334;36.986;-121.936;2023-05-14T00:29:32;5.40;;;2.28;;
22332;SDS011;11334;36.986;-121.936;2023-05-14T00:31:59;3.72;;;1.83;;
22332;SDS011;11334;36.986;-121.936;2023-05-14T00:34:28;2.08;;;1.88;;
22332;SDS011;11334;36.986;-121.936;2023-05-14T00:36:54;3.67;;;2.10;;
22332;SDS011;11334;36.986;-121.936;2023-05-14T00:39:21;3.70;;;2.10;;
22332;SDS011;11334;36.986;-121.936;2023-05-14T00:41:47;4.35;;;2.45;;
22332;SDS011;11334;36.986;-121.936;2023-05-14T00:44:13;2.85;;;2.55;;
22332;SDS011;11334;36.986;-121.936;2023-05-14T00:46:39;4.15;;;2.38;;
22332;SDS011;11334;36.986;-121.936;2023-05-14T00:49:07;3.83;;;2.45;;
22332;SDS011;11334;36.986;-121.936;2023-05-14T00:51:34;2.25;;;2.15;;
22332;SDS011;11334;36.986;-121.936;2023-05-14T00:54:00;2.25;;;2.05;;
22332;SDS011;11334;36.986;-121.936;2023-05-14T00:56:27;2.03;;;1.92;;
22332;SDS011;11334;36.986;-121.936;2023-05-14T00:58:53;2.75;;;2.50;;
22332;SDS011;11334;36.986;-121.936;2023-05-14T01:01:19;3.30;;;2.20;;
22332;SDS011;11334;36.986;-121.936;2023-05-14T01:03:46;2.95;;;2.45;;
22332;SDS011;11334;36.986;-121.936;2023-05-14T01:11:54;3.35;;;3.05;;
22332;SDS011;11334;36.986;-121.936;2023-05-14T01:17:08;2.60;;;2.40;;
22332;SDS011;11334;36.986;-121.936;2023-05-14T01:19:40;4.95;;;2.90;;
22332;SDS011;11334;36.986;-121.936;2023-05-14T01:22:08;4.22;;;2.80;;
22332;SDS011;11334;36.986;-121.936;2023-05-14T01:24:35;3.45;;;3.15;;
22332;SDS011;11334;36.986;-121.936;2023-05-14T01:27:18;4.80;;;3.25;;
22332;SDS011;11334;36.986;-121.936;2023-05-14T01:30:02;2.88;;;2.58;;
22332;SDS011;11334;36.986;-121.936;2023-05-14T01:32:47;4.75;;;3.85;;
22332;SDS011;11334;36.986;-121.936;2023-05-14T01:35:18;4.80;;;3.75;;
22332;SDS011;11334;36.986;-121.936;2023-05-14T01:37:47;4.25;;;3.83;;
22332;SDS011;11334;36.986;-121.936;2023-05-14T01:40:14;6.55;;;4.00;;
22332;SDS011;11334;36.986;-121.936;2023-05-14T01:42:41;3.70;;;3.40;;
22332;SDS011;11334;36.986;-121.936;2023-05-14T01:45:08;5.10;;;3.55;;
22332;SDS011;11334;36.986;-121.936;2023-05-14T01:47:35;4.25;;;3.85;;
22332;SDS011;11334;36.986;-121.936;2023-05-14T01:50:01;3.53;;;3.22;;
22332;SDS011;11334;36.986;-121.936;2023-05-14T01:52:27;4.15;;;3.40;;
22332;SDS011;11334;36.986;-121.936;2023-05-14T01:54:54;4.00;;;3.58;;
22332;SDS011;11334;36.986;-121.936;2023-05-14T01:57:22;3.63;;;3.00;;
22332;SDS011;11334;36.986;-121.936;2023-05-14T01:59:48;3.78;;;3.47;;
22332;SDS011;11334;36.986;-121.936;2023-05-14T02:02:15;4.85;;;4.40;;
22332;SDS011;11334;36.986;-121.936;2023-05-14T02:04:43;4.70;;;3.90;;
22332;SDS011;11334;36.986;-121.936;2023-05-14T02:07:10;3.67;;;3.33;;
22332;SDS011;11334;36.986;-121.936;2023-05-14T02:09:36;4.32;;;3.92;;
22332;SDS011;11334;36.986;-121.936;2023-05-14T02:12:02;4.25;;;3.85;;
22332;SDS011;11334;36.986;-121.936;2023-05-14T02:14:28;3.92;;;3.38;;
22332;SDS011;11334;36.986;-121.936;2023-05-14T02:16:55;3.90;;;3.60;;
22332;SDS011;11334;36.986;-121.936;2023-05-14T02:19:21;4.45;;;3.65;;
22332;SDS011;11334;36.986;-121.936;2023-05-14T02:21:47;4.32;;;3.90;;
22332;SDS011;11334;36.986;-121.936;2023-05-14T02:24:14;3.97;;;3.53;;
22332;SDS011;11334;36.986;-121.936;2023-05-14T02:26:41;3.50;;;3.20;;
22332;SDS011;11334;36.986;-121.936;2023-05-14T02:29:07;4.78;;;3.20;;
22332;SDS011;11334;36.986;-121.936;2023-05-14T02:31:33;3.38;;;3.10;;
22332;SDS011;11334;36.986;-121.936;2023-05-14T02:34:00;4.10;;;3.70;;
22332;SDS011;11334;36.986;-121.936;2023-05-14T02:36:28;3.70;;;2.85;;
22332;SDS011;11334;36.986;-121.936;2023-05-14T02:38:57;4.10;;;3.47;;
22332;SDS011;11334;36.986;-121.936;2023-05-14T02:41:25;3.95;;;3.50;;
22332;SDS011;11334;36.986;-121.936;2023-05-14T02:43:52;4.38;;;3.97;;
22332;SDS011;11334;36.986;-121.936;2023-05-14T02:46:19;5.65;;;4.05;;
22332;SDS011;11334;36.986;-121.936;2023-05-14T02:48:45;5.22;;;4.72;;
22332;SDS011;11334;36.986;-121.936;2023-05-14T02:51:11;6.03;;;5.22;;
22332;SDS011;11334;36.986;-121.936;2023-05-14T02:53:37;14.82;;;13.43;;
22332;SDS011;11334;36.986;-121.936;2023-05-14T02:56:04;11.45;;;10.43;;
22332;SDS011;11334;36.986;-121.936;2023-05-14T02:58:30;9.88;;;8.88;;
22332;SDS011;11334;36.986;-121.936;2023-05-14T03:00:56;7.88;;;7.07;;
22332;SDS011;11334;36.986;-121.936;2023-05-14T03:03:22;8.45;;;6.43;;
22332;SDS011;11334;36.986;-121.936;2023-05-14T03:05:49;6.30;;;5.70;;
22332;SDS011;11334;36.986;-121.936;2023-05-14T03:08:15;8.73;;;6.75;;
22332;SDS011;11334;36.986;-121.936;2023-05-14T03:10:41;7.57;;;6.88;;
22332;SDS011;11334;36.986;-121.936;2023-05-14T03:13:07;8.73;;;6.55;;
22332;SDS011;11334;36.986;-121.936;2023-05-14T03:15:33;7.70;;;6.82;;
22332;SDS011;11334;36.986;-121.936;2023-05-14T03:18:00;8.73;;;7.28;;
22332;SDS011;11334;36.986;-121.936;2023-05-14T03:20:26;9.98;;;7.07;;
22332;SDS011;11334;36.986;-121.936;2023-05-14T03:22:52;10.38;;;6.20;;
22332;SDS011;11334;36.986;-121.936;2023-05-14T03:25:20;8.63;;;6.90;;
22332;SDS011;11334;36.986;-121.936;2023-05-14T03:27:46;8.20;;;5.75;;
22332;SDS011;11334;36.986;-121.936;2023-05-14T03:30:13;7.30;;;6.35;;
22332;SDS011;11334;36.986;-121.936;2023-05-14T03:32:39;6.72;;;6.05;;
22332;SDS011;11334;36.986;-121.936;2023-05-14T03:35:05;7.47;;;6.60;;
22332;SDS011;11334;36.986;-121.936;2023-05-14T03:37:32;7.10;;;6.25;;
22332;SDS011;11334;36.986;-121.936;2023-05-14T03:39:58;6.25;;;5.38;;
22332;SDS011;11334;36.986;-121.936;2023-05-14T03:42:24;6.40;;;5.80;;
22332;SDS011;11334;36.986;-121.936;2023-05-14T03:44:51;6.50;;;4.88;;
22332;SDS011;11334;36.986;-121.936;2023-05-14T03:47:17;5.78;;;5.03;;
22332;SDS011;11334;36.986;-121.936;2023-05-14T03:49:44;12.23;;;5.63;;
22332;SDS011;11334;36.986;-121.936;2023-05-14T03:52:10;12.30;;;5.82;;
22332;SDS011;11334;36.986;-121.936;2023-05-14T03:54:36;7.53;;;6.68;;
22332;SDS011;11334;36.986;-121.936;2023-05-14T03:57:03;6.22;;;5.25;;
22332;SDS011;11334;36.986;-121.936;2023-05-14T03:59:29;7.30;;;5.47;;
22332;SDS011;11334;36.986;-121.936;2023-05-14T04:01:56;5.03;;;4.57;;
22332;SDS011;11334;36.986;-121.936;2023-05-14T04:04:22;5.55;;;5.05;;
22332;SDS011;11334;36.986;-121.936;2023-05-14T04:06:48;8.32;;;5.78;;
22332;SDS011;11334;36.986;-121.936;2023-05-14T04:09:14;7.72;;;5.95;;
22332;SDS011;11334;36.986;-121.936;2023-05-14T04:11:40;8.77;;;7.05;;
22332;SDS011;11334;36.986;-121.936;2023-05-14T04:14:07;7.10;;;6.00;;
22332;SDS011;11334;36.986;-121.936;2023-05-14T04:16:33;6.95;;;5.35;;
22332;SDS011;11334;36.986;-121.936;2023-05-14T04:19:01;6.32;;;4.60;;
22332;SDS011;11334;36.986;-121.936;2023-05-14T04:21:30;4.63;;;4.20;;
22332;SDS011;11334;36.986;-121.936;2023-05-14T04:23:56;5.43;;;4.75;;
22332;SDS011;11334;36.986;-121.936;2023-05-14T04:26:23;5.82;;;4.30;;
22332;SDS011;11334;36.986;-121.936;2023-05-14T04:28:49;4.70;;;4.30;;
22332;SDS011;11334;36.986;-121.936;2023-05-14T04:31:15;6.05;;;4.68;;
22332;SDS011;11334;36.986;-121.936;2023-05-14T04:33:42;5.32;;;4.82;;
22332;SDS011;11334;36.986;-121.936;2023-05-14T04:36:08;4.32;;;3.20;;
22332;SDS011;11334;36.986;-121.936;2023-05-14T04:38:34;3.38;;;3.08;;
22332;SDS011;11334;36.986;-121.936;2023-05-14T04:41:00;3.75;;;3.45;;
22332;SDS011;11334;36.986;-121.936;2023-05-14T04:43:26;5.78;;;4.32;;
22332;SDS011;11334;36.986;-121.936;2023-05-14T04:45:53;6.43;;;5.82;;
22332;SDS011;11334;36.986;-121.936;2023-05-14T04:48:19;6.65;;;5.15;;
22332;SDS011;11334;36.986;-121.936;2023-05-14T04:50:45;7.40;;;6.40;;
22332;SDS011;11334;36.986;-121.936;2023-05-14T04:53:12;9.15;;;7.43;;
22332;SDS011;11334;36.986;-121.936;2023-05-14T04:55:38;7.25;;;6.38;;
22332;SDS011;11334;36.986;-121.936;2023-05-14T04:58:05;8.40;;;6.90;;
22332;SDS011;11334;36.986;-121.936;2023-05-14T05:00:31;7.25;;;6.10;;
22332;SDS011;11334;36.986;-121.936;2023-05-14T05:02:58;7.45;;;5.95;;
22332;SDS011;11334;36.986;-121.936;2023-05-14T05:05:24;8.95;;;7.10;;
22332;SDS011;11334;36.986;-121.936;2023-05-14T05:07:50;11.55;;;7.75;;
22332;SDS011;11334;36.986;-121.936;2023-05-14T05:10:16;10.00;;;7.70;;
22332;SDS011;11334;36.986;-121.936;2023-05-14T05:12:42;9.85;;;7.95;;
22332;SDS011;11334;36.986;-121.936;2023-05-14T05:15:09;11.43;;;8.63;;
22332;SDS011;11334;36.986;-121.936;2023-05-14T05:17:35;11.27;;;7.90;;
22332;SDS011;11334;36.986;-121.936;2023-05-14T05:20:02;10.77;;;8.20;;
22332;SDS011;11334;36.986;-121.936;2023-05-14T05:22:30;10.00;;;8.50;;
22332;SDS011;11334;36.986;-121.936;2023-05-14T05:24:56;10.77;;;8.50;;
22332;SDS011;11334;36.986;-121.936;2023-05-14T05:27:24;11.77;;;9.02;;
22332;SDS011;11334;36.986;-121.936;2023-05-14T05:29:50;13.43;;;8.93;;
22332;SDS011;11334;36.986;-121.936;2023-05-14T05:32:16;12.18;;;9.00;;
22332;SDS011;11334;36.986;-121.936;2023-05-14T05:34:43;8.90;;;7.95;;
22332;SDS011;11334;36.986;-121.936;2023-05-14T05:37:10;9.20;;;7.97;;
22332;SDS011;11334;36.986;-121.936;2023-05-14T05:39:38;9.98;;;8.93;;
22332;SDS011;11334;36.986;-121.936;2023-05-14T05:42:04;10.15;;;8.55;;
22332;SDS011;11334;36.986;-121.936;2023-05-14T05:44:31;12.48;;;8.55;;
22332;SDS011;11334;36.986;-121.936;2023-05-14T05:46:57;9.73;;;7.95;;
22332;SDS011;11334;36.986;-121.936;2023-05-14T05:49:24;10.55;;;8.25;;
22332;SDS011;11334;36.986;-121.936;2023-05-14T05:51:50;8.40;;;7.55;;
22332;SDS011;11334;36.986;-121.936;2023-05-14T05:54:16;11.00;;;8.15;;
22332;SDS011;11334;36.986;-121.936;2023-05-14T05:56:42;24.92;;;19.73;;
22332;SDS011;11334;36.986;-121.936;2023-05-14T05:59:09;11.75;;;9.73;;
22332;SDS011;11334;36.986;-121.936;2023-05-14T06:01:35;13.00;;;8.57;;
22332;SDS011;11334;36.986;-121.936;2023-05-14T06:04:01;8.73;;;7.63;;
22332;SDS011;11334;36.986;-121.936;2023-05-14T06:06:29;10.93;;;7.95;;
22332;SDS011;11334;36.986;-121.936;2023-05-14T06:08:57;8.45;;;7.55;;
22332;SDS011;11334;36.986;-121.936;2023-05-14T06:11:23;10.65;;;8.18;;
22332;SDS011;11334;36.986;-121.936;2023-05-14T06:13:49;8.85;;;8.05;;
22332;SDS011;11334;36.986;-121.936;2023-05-14T06:16:15;12.52;;;8.77;;
22332;SDS011;11334;36.986;-121.936;2023-05-14T06:18:41;12.88;;;8.20;;
22332;SDS011;11334;36.986;-121.936;2023-05-14T06:21:08;10.02;;;9.02;;
22332;SDS011;11334;36.986;-121.936;2023-05-14T06:23:34;12.68;;;9.73;;
22332;SDS011;11334;36.986;-121.936;2023-05-14T06:26:00;14.20;;;10.27;;
22332;SDS011;11334;36.986;-121.936;2023-05-14T06:28:26;11.15;;;8.43;;
22332;SDS011;11334;36.986;-121.936;2023-05-14T06:30:53;9.68;;;8.13;;
22332;SDS011;11334;36.986;-121.936;2023-05-14T06:33:19;10.75;;;8.77;;
22332;SDS011;11334;36.986;-121.936;2023-05-14T06:35:54;10.32;;;8.38;;
22332;SDS011;11334;36.986;-121.936;2023-05-14T06:38:20;8.75;;;6.93;;
22332;SDS011;11334;36.986;-121.936;2023-05-14T06:40:46;8.88;;;6.55;;
22332;SDS011;11334;36.986;-121.936;2023-05-14T06:43:12;7.45;;;6.38;;
22332;SDS011;11334;36.986;-121.936;2023-05-14T06:45:38;7.10;;;6.40;;
22332;SDS011;11334;36.986;-121.936;2023-05-14T06:48:05;7.88;;;6.60;;
22332;SDS011;11334;36.986;-121.936;2023-05-14T06:50:31;8.65;;;6.75;;
22332;SDS011;11334;36.986;-121.936;2023-05-14T06:52:57;8.60;;;6.43;;
22332;SDS011;11334;36.986;-121.936;2023-05-14T06:55:23;10.85;;;7.72;;
22332;SDS011;11334;36.986;-121.936;2023-05-14T06:57:50;9.50;;;7.63;;
22332;SDS011;11334;36.986;-121.936;2023-05-14T07:00:16;9.77;;;8.45;;
22332;SDS011;11334;36.986;-121.936;2023-05-14T07:02:42;10.98;;;7.63;;
22332;SDS011;11334;36.986;-121.936;2023-05-14T07:05:09;9.43;;;8.30;;
22332;SDS011;11334;36.986;-121.936;2023-05-14T07:07:35;9.02;;;7.35;;
22332;SDS011;11334;36.986;-121.936;2023-05-14T07:10:02;9.35;;;7.72;;
22332;SDS011;11334;36.986;-121.936;2023-05-14T07:12:28;7.55;;;6.35;;
22332;SDS011;11334;36.986;-121.936;2023-05-14T07:14:54;9.00;;;6.47;;
22332;SDS011;11334;36.986;-121.936;2023-05-14T07:17:21;7.43;;;5.93;;
22332;SDS011;11334;36.986;-121.936;2023-05-14T07:19:47;9.73;;;5.80;;
22332;SDS011;11334;36.986;-121.936;2023-05-14T07:22:13;6.90;;;6.18;;
22332;SDS011;11334;36.986;-121.936;2023-05-14T07:24:40;8.25;;;6.88;;
22332;SDS011;11334;36.986;-121.936;2023-05-14T07:27:06;6.40;;;5.65;;
22332;SDS011;11334;36.986;-121.936;2023-05-14T07:29:33;7.05;;;5.43;;
22332;SDS011;11334;36.986;-121.936;2023-05-14T07:31:59;5.82;;;5.22;;
22332;SDS011;11334;36.986;-121.936;2023-05-14T07:34:26;8.27;;;5.18;;
22332;SDS011;11334;36.986;-121.936;2023-05-14T07:36:52;7.40;;;5.20;;
22332;SDS011;11334;36.986;-121.936;2023-05-14T07:39:19;5.45;;;4.95;;
22332;SDS011;11334;36.986;-121.936;2023-05-14T07:41:45;5.63;;;5.13;;
22332;SDS011;11334;36.986;-121.936;2023-05-14T07:44:11;8.82;;;4.93;;
22332;SDS011;11334;36.986;-121.936;2023-05-14T07:46:37;9.18;;;6.38;;
22332;SDS011;11334;36.986;-121.936;2023-05-14T07:49:04;9.63;;;6.45;;
22332;SDS011;11334;36.986;-121.936;2023-05-14T07:51:30;7.63;;;6.32;;
22332;SDS011;11334;36.986;-121.936;2023-05-14T07:53:57;13.48;;;7.45;;
22332;SDS011;11334;36.986;-121.936;2023-05-14T07:56:23;8.02;;;6.95;;
22332;SDS011;11334;36.986;-121.936;2023-05-14T07:58:50;9.30;;;7.05;;
22332;SDS011;11334;36.986;-121.936;2023-05-14T08:01:16;9.65;;;8.40;;
22332;SDS011;11334;36.986;-121.936;2023-05-14T08:03:43;14.07;;;8.93;;
22332;SDS011;11334;36.986;-121.936;2023-05-14T08:06:09;14.98;;;9.32;;
22332;SDS011;11334;36.986;-121.936;2023-05-14T08:08:36;14.63;;;11.18;;
22332;SDS011;11334;36.986;-121.936;2023-05-14T08:11:02;17.83;;;13.20;;
22332;SDS011;11334;36.986;-121.936;2023-05-14T08:13:28;18.17;;;12.88;;
22332;SDS011;11334;36.986;-121.936;2023-05-14T08:15:55;16.10;;;11.57;;
22332;SDS011;11334;36.986;-121.936;2023-05-14T08:18:21;18.10;;;12.50;;
22332;SDS011;11334;36.986;-121.936;2023-05-14T08:20:47;17.10;;;11.43;;
22332;SDS011;11334;36.986;-121.936;2023-05-14T08:23:13;18.33;;;11.93;;
22332;SDS011;11334;36.986;-121.936;2023-05-14T08:25:40;22.02;;;12.05;;
22332;SDS011;11334;36.986;-121.936;2023-05-14T08:28:06;17.38;;;12.00;;
22332;SDS011;11334;36.986;-121.936;2023-05-14T08:30:32;15.90;;;12.48;;
22332;SDS011;11334;36.986;-121.936;2023-05-14T08:32:58;16.92;;;13.07;;
22332;SDS011;11334;36.986;-121.936;2023-05-14T08:35:25;21.65;;;13.77;;
22332;SDS011;11334;36.986;-121.936;2023-05-14T08:37:51;18.92;;;14.00;;
22332;SDS011;11334;36.986;-121.936;2023-05-14T08:40:17;15.65;;;12.60;;
22332;SDS011;11334;36.986;-121.936;2023-05-14T08:42:43;15.10;;;12.43;;
22332;SDS011;11334;36.986;-121.936;2023-05-14T08:45:13;14.55;;;11.63;;
22332;SDS011;11334;36.986;-121.936;2023-05-14T08:47:47;12.73;;;10.02;;
22332;SDS011;11334;36.986;-121.936;2023-05-14T08:50:15;12.32;;;9.32;;
22332;SDS011;11334;36.986;-121.936;2023-05-14T08:52:42;12.07;;;10.70;;
22332;SDS011;11334;36.986;-121.936;2023-05-14T08:55:10;13.50;;;10.07;;
22332;SDS011;11334;36.986;-121.936;2023-05-14T08:57:37;18.27;;;9.90;;
22332;SDS011;11334;36.986;-121.936;2023-05-14T09:00:03;12.02;;;8.40;;
22332;SDS011;11334;36.986;-121.936;2023-05-14T09:02:36;11.38;;;7.32;;
22332;SDS011;11334;36.986;-121.936;2023-05-14T09:05:04;8.10;;;7.30;;
22332;SDS011;11334;36.986;-121.936;2023-05-14T09:07:34;7.88;;;6.78;;
22332;SDS011;11334;36.986;-121.936;2023-05-14T09:10:01;9.05;;;6.28;;
22332;SDS011;11334;36.986;-121.936;2023-05-14T09:12:28;8.18;;;6.00;;
22332;SDS011;11334;36.986;-121.936;2023-05-14T09:14:55;7.90;;;7.10;;
22332;SDS011;11334;36.986;-121.936;2023-05-14T09:17:21;5.28;;;4.78;;
22332;SDS011;11334;36.986;-121.936;2023-05-14T09:19:52;6.28;;;5.68;;
22332;SDS011;11334;36.986;-121.936;2023-05-14T09:22:18;7.53;;;5.90;;
22332;SDS011;11334;36.986;-121.936;2023-05-14T09:24:45;5.43;;;4.93;;
22332;SDS011;11334;36.986;-121.936;2023-05-14T09:27:28;5.82;;;5.32;;
22332;SDS011;11334;36.986;-121.936;2023-05-14T09:30:02;4.80;;;4.35;;
22332;SDS011;11334;36.986;-121.936;2023-05-14T09:32:36;5.00;;;4.35;;
22332;SDS011;11334;36.986;-121.936;2023-05-14T09:35:14;4.68;;;4.22;;
22332;SDS011;11334;36.986;-121.936;2023-05-14T09:37:45;5.03;;;4.30;;
22332;SDS011;11334;36.986;-121.936;2023-05-14T09:40:16;7.90;;;4.30;;
22332;SDS011;11334;36.986;-121.936;2023-05-14T09:42:44;3.95;;;3.55;;
22332;SDS011;11334;36.986;-121.936;2023-05-14T09:45:10;3.83;;;3.42;;
22332;SDS011;11334;36.986;-121.936;2023-05-14T09:47:37;4.25;;;3.88;;
22332;SDS011;11334;36.986;-121.936;2023-05-14T09:50:04;5.95;;;4.65;;
22332;SDS011;11334;36.986;-121.936;2023-05-14T09:52:31;5.75;;;4.50;;
22332;SDS011;11334;36.986;-121.936;2023-05-14T09:54:58;4.40;;;4.00;;
22332;SDS011;11334;36.986;-121.936;2023-05-14T09:57:25;5.10;;;3.60;;
22332;SDS011;11334;36.986;-121.936;2023-05-14T09:59:52;4.50;;;3.83;;
22332;SDS011;11334;36.986;-121.936;2023-05-14T10:02:34;6.30;;;4.20;;
22332;SDS011;11334;36.986;-121.936;2023-05-14T10:05:02;4.63;;;3.90;;
22332;SDS011;11334;36.986;-121.936;2023-05-14T10:07:32;4.15;;;3.75;;
22332;SDS011;11334;36.986;-121.936;2023-05-14T10:10:12;5.05;;;3.50;;
22332;SDS011;11334;36.986;-121.936;2023-05-14T10:12:44;4.03;;;2.90;;
22332;SDS011;11334;36.986;-121.936;2023-05-14T10:15:18;3.63;;;3.33;;
22332;SDS011;11334;36.986;-121.936;2023-05-14T10:17:48;3.60;;;3.00;;
22332;SDS011;11334;36.986;-121.936;2023-05-14T10:20:20;2.80;;;2.60;;
22332;SDS011;11334;36.986;-121.936;2023-05-14T10:22:49;3.78;;;2.85;;
22332;SDS011;11334;36.986;-121.936;2023-05-14T10:25:15;3.13;;;2.83;;
22332;SDS011;11334;36.986;-121.936;2023-05-14T10:27:42;3.55;;;2.65;;
22332;SDS011;11334;36.986;-121.936;2023-05-14T10:30:11;2.60;;;2.40;;
22332;SDS011;11334;36.986;-121.936;2023-05-14T10:32:38;2.45;;;2.17;;
22332;SDS011;11334;36.986;-121.936;2023-05-14T10:35:19;3.25;;;2.60;;
22332;SDS011;11334;36.986;-121.936;2023-05-14T10:37:49;2.00;;;1.85;;
22332;SDS011;11334;36.986;-121.936;2023-05-14T10:40:16;2.00;;;1.90;;
22332;SDS011;11334;36.986;-121.936;2023-05-14T10:42:43;1.73;;;1.58;;
22332;SDS011;11334;36.986;-121.936;2023-05-14T10:45:14;4.18;;;1.63;;
22332;SDS011;11334;36.986;-121.936;2023-05-14T10:47:41;1.60;;;1.10;;
22332;SDS011;11334;36.986;-121.936;2023-05-14T10:50:10;2.08;;;1.63;;
22332;SDS011;11334;36.986;-121.936;2023-05-14T10:52:41;1.27;;;1.17;;
22332;SDS011;11334;36.986;-121.936;2023-05-14T10:55:11;1.60;;;1.50;;
22332;SDS011;11334;36.986;-121.936;2023-05-14T10:57:38;1.17;;;1.08;;
22332;SDS011;11334;36.986;-121.936;2023-05-14T11:00:07;1.48;;;1.38;;
22332;SDS011;11334;36.986;-121.936;2023-05-14T11:02:37;2.28;;;1.58;;
22332;SDS011;11334;36.986;-121.936;2023-05-14T11:05:07;1.50;;;1.33;;
22332;SDS011;11334;36.986;-121.936;2023-05-14T11:07:38;1.85;;;1.13;;
22332;SDS011;11334;36.986;-121.936;2023-05-14T11:12:35;3.75;;;0.93;;
22332;SDS011;11334;36.986;-121.936;2023-05-14T11:15:04;1.13;;;0.88;;
22332;SDS011;11334;36.986;-121.936;2023-05-14T11:17:35;1.92;;;0.90;;
22332;SDS011;11334;36.986;-121.936;2023-05-14T11:20:03;0.82;;;0.82;;
22332;SDS011;11334;36.986;-121.936;2023-05-14T11:22:30;0.88;;;0.88;;
22332;SDS011;11334;36.986;-121.936;2023-05-14T11:24:57;2.88;;;0.90;;
22332;SDS011;11334;36.986;-121.936;2023-05-14T11:27:23;1.13;;;1.13;;
22332;SDS011;11334;36.986;-121.936;2023-05-14T11:29:50;1.23;;;1.10;;
22332;SDS011;11334;36.986;-121.936;2023-05-14T11:32:17;0.93;;;0.93;;
22332;SDS011;11334;36.986;-121.936;2023-05-14T11:34:44;1.10;;;1.00;;
22332;SDS011;11334;36.986;-121.936;2023-05-14T11:37:11;2.13;;;1.52;;
22332;SDS011;11334;36.986;-121.936;2023-05-14T11:39:45;2.40;;;1.40;;
22332;SDS011;11334;36.986;-121.936;2023-05-14T11:42:13;2.08;;;1.63;;
22332;SDS011;11334;36.986;-121.936;2023-05-14T11:44:41;1.60;;;1.50;;
22332;SDS011;11334;36.986;-121.936;2023-05-14T11:47:11;2.25;;;1.83;;
22332;SDS011;11334;36.986;-121.936;2023-05-14T11:49:37;1.95;;;1.77;;
22332;SDS011;11334;36.986;-121.936;2023-05-14T11:52:04;1.95;;;1.75;;
22332;SDS011;11334;36.986;-121.936;2023-05-14T11:54:32;1.48;;;1.38;;
22332;SDS011;11334;36.986;-121.936;2023-05-14T11:57:02;2.05;;;1.85;;
22332;SDS011;11334;36.986;-121.936;2023-05-14T11:59:33;1.95;;;1.85;;
22332;SDS011;11334;36.986;-121.936;2023-05-14T12:02:00;2.10;;;1.90;;
22332;SDS011;11334;36.986;-121.936;2023-05-14T12:04:28;2.05;;;1.85;;
22332;SDS011;11334;36.986;-121.936;2023-05-14T12:06:56;1.88;;;1.50;;
22332;SDS011;11334;36.986;-121.936;2023-05-14T12:09:24;1.80;;;1.70;;
22332;SDS011;11334;36.986;-121.936;2023-05-14T12:11:53;3.03;;;1.80;;
22332;SDS011;11334;36.986;-121.936;2023-05-14T12:14:21;1.98;;;1.88;;
22332;SDS011;11334;36.986;-121.936;2023-05-14T12:16:48;1.95;;;1.48;;
22332;SDS011;11334;36.986;-121.936;2023-05-14T12:19:16;1.67;;;1.30;;
22332;SDS011;11334;36.986;-121.936;2023-05-14T12:21:46;1.88;;;1.10;;
22332;SDS011;11334;36.986;-121.936;2023-05-14T12:24:17;2.13;;;1.45;;
22332;SDS011;11334;36.986;-121.936;2023-05-14T12:26:47;2.20;;;1.13;;
22332;SDS011;11334;36.986;-121.936;2023-05-14T12:29:15;1.63;;;1.05;;
22332;SDS011;11334;36.986;-121.936;2023-05-14T12:31:48;2.35;;;1.25;;
22332;SDS011;11334;36.986;-121.936;2023-05-14T12:34:15;1.20;;;1.10;;
22332;SDS011;11334;36.986;-121.936;2023-05-14T12:36:42;1.73;;;1.38;;
22332;SDS011;11334;36.986;-121.936;2023-05-14T12:39:09;1.88;;;1.50;;
22332;SDS011;11334;36.986;-121.936;2023-05-14T12:41:36;1.52;;;1.20;;
22332;SDS011;11334;36.986;-121.936;2023-05-14T12:44:03;1.27;;;1.17;;
22332;SDS011;11334;36.986;-121.936;2023-05-14T12:46:29;1.48;;;1.38;;
22332;SDS011;11334;36.986;-121.936;2023-05-14T12:48:57;1.48;;;1.38;;
22332;SDS011;11334;36.986;-121.936;2023-05-14T12:51:23;1.67;;;1.55;;
22332;SDS011;11334;36.986;-121.936;2023-05-14T12:53:50;1.48;;;1.38;;
22332;SDS011;11334;36.986;-121.936;2023-05-14T12:56:18;1.90;;;1.48;;
22332;SDS011;11334;36.986;-121.936;2023-05-14T12:58:46;1.70;;;1.60;;
22332;SDS011;11334;36.986;-121.936;2023-05-14T13:01:12;1.88;;;1.75;;
22332;SDS011;11334;36.986;-121.936;2023-05-14T13:03:38;1.20;;;1.10;;
22332;SDS011;11334;36.986;-121.936;2023-05-14T13:06:05;1.80;;;1.63;;
22332;SDS011;11334;36.986;-121.936;2023-05-14T13:08:32;1.80;;;1.30;;
22332;SDS011;11334;36.986;-121.936;2023-05-14T13:10:59;1.58;;;1.48;;
22332;SDS011;11334;36.986;-121.936;2023-05-14T13:13:28;2.25;;;1.40;;
22332;SDS011;11334;36.986;-121.936;2023-05-14T13:15:54;1.30;;;1.20;;
22332;SDS011;11334;36.986;-121.936;2023-05-14T13:18:21;1.10;;;1.10;;
22332;SDS011;11334;36.986;-121.936;2023-05-14T13:20:47;0.70;;;0.70;;
22332;SDS011;11334;36.986;-121.936;2023-05-14T13:23:13;1.52;;;0.77;;
22332;SDS011;11334;36.986;-121.936;2023-05-14T13:25:39;1.02;;;0.65;;
22332;SDS011;11334;36.986;-121.936;2023-05-14T13:28:06;2.13;;;1.10;;
22332;SDS011;11334;36.986;-121.936;2023-05-14T13:30:33;0.50;;;0.50;;
22332;SDS011;11334;36.986;-121.936;2023-05-14T13:32:59;0.90;;;0.90;;
22332;SDS011;11334;36.986;-121.936;2023-05-14T13:35:25;0.90;;;0.90;;
22332;SDS011;11334;36.986;-121.936;2023-05-14T13:37:51;1.20;;;0.90;;
22332;SDS011;11334;36.986;-121.936;2023-05-14T13:40:18;1.85;;;1.02;;
22332;SDS011;11334;36.986;-121.936;2023-05-14T13:42:44;0.80;;;0.80;;
22332;SDS011;11334;36.986;-121.936;2023-05-14T13:45:11;1.63;;;1.00;;
22332;SDS011;11334;36.986;-121.936;2023-05-14T13:47:37;0.75;;;0.73;;
22332;SDS011;11334;36.986;-121.936;2023-05-14T13:50:03;0.73;;;0.73;;
22332;SDS011;11334;36.986;-121.936;2023-05-14T13:52:30;0.80;;;0.80;;
22332;SDS011;11334;36.986;-121.936;2023-05-14T13:54:56;0.90;;;0.90;;
22332;SDS011;11334;36.986;-121.936;2023-05-14T13:57:22;0.68;;;0.68;;
22332;SDS011;11334;36.986;-121.936;2023-05-14T13:59:48;1.02;;;0.77;;
22332;SDS011;11334;36.986;-121.936;2023-05-14T14:02:15;1.13;;;0.95;;
22332;SDS011;11334;36.986;-121.936;2023-05-14T14:04:41;0.60;;;0.60;;
22332;SDS011;11334;36.986;-121.936;2023-05-14T14:07:08;0.77;;;0.70;;
22332;SDS011;11334;36.986;-121.936;2023-05-14T14:09:34;0.60;;;0.60;;
22332;SDS011;11334;36.986;-121.936;2023-05-14T14:12:04;1.85;;;0.85;;
22332;SDS011;11334;36.986;-121.936;2023-05-14T14:14:30;0.68;;;0.68;;
22332;SDS011;11334;36.986;-121.936;2023-05-14T14:16:57;0.50;;;0.50;;